Time;durP1;ratioP1;P1;durP2;ratioP2;P2;SDS_P1;SDS_P2;PMS_P1;PMS_P2;Temp;Humidity;BMP_temperature;BMP_pressure;BME280_temperature;BME280_humidity;BME280_pressure;Samples;Min_cycle;Max_cycle;Signal;HPM_P1;HPM_P2
2021/12/26 00:01:19;;;;;;;25.85;21.27;;;5.70;99.90;;;;;;5096741;28;20223;-82
2021/12/26 00:03:47;;;;;;;30.45;23.23;;;5.70;99.90;;;;;;5075874;28;20200;-81
2021/12/26 00:06:17;;;;;;;20.35;17.92;;;5.80;99.90;;;;;;5086133;28;20207;-81
2021/12/26 00:08:46;;;;;;;15.60;14.00;;;5.80;99.90;;;;;;5083188;28;20660;-81
2021/12/26 00:11:14;;;;;;;16.65;15.05;;;5.80;99.90;;;;;;5081500;28;20251;-81
2021/12/26 00:13:41;;;;;;;16.45;14.85;;;5.80;99.90;;;;;;5076816;28;20251;-81
2021/12/26 00:16:12;;;;;;;16.63;14.95;;;5.80;99.90;;;;;;5091617;28;20615;-81
2021/12/26 00:18:42;;;;;;;16.73;15.07;;;5.70;99.90;;;;;;5071689;28;20317;-82
2021/12/26 00:21:10;;;;;;;18.10;16.30;;;5.70;99.90;;;;;;5084241;28;20215;-81
2021/12/26 00:23:37;;;;;;;17.73;15.93;;;5.60;99.90;;;;;;5090429;28;20203;-81
2021/12/26 00:26:04;;;;;;;18.50;16.65;;;5.60;99.90;;;;;;5089620;28;20260;-81
2021/12/26 00:28:31;;;;;;;17.73;15.90;;;5.60;99.90;;;;;;5073355;28;20202;-81
2021/12/26 00:30:58;;;;;;;17.73;15.90;;;5.60;99.90;;;;;;5080771;28;20216;-81
2021/12/26 00:33:27;;;;;;;18.48;16.63;;;5.60;99.90;;;;;;5088725;28;20223;-81
2021/12/26 00:35:54;;;;;;;18.85;16.85;;;5.60;99.90;;;;;;5080383;28;20659;-81
2021/12/26 00:38:22;;;;;;;17.42;15.60;;;5.60;99.90;;;;;;5074440;28;20224;-81
2021/12/26 00:40:50;;;;;;;18.73;16.92;;;5.60;99.90;;;;;;5077956;28;20214;-81
2021/12/26 00:43:17;;;;;;;17.70;15.90;;;5.60;99.90;;;;;;5078495;28;20227;-81
2021/12/26 00:45:45;;;;;;;18.25;16.25;;;5.60;99.90;;;;;;5090167;28;20830;-81
2021/12/26 00:48:11;;;;;;;17.40;15.70;;;5.60;99.90;;;;;;5091107;28;20244;-80
2021/12/26 00:50:43;;;;;;;18.20;16.35;;;5.60;99.90;;;;;;5082808;28;20219;-81
2021/12/26 00:53:10;;;;;;;19.10;17.13;;;5.50;99.90;;;;;;5072827;28;20678;-81
2021/12/26 00:55:38;;;;;;;18.65;16.75;;;5.50;99.90;;;;;;5090076;28;20287;-81
2021/12/26 00:58:07;;;;;;;18.10;16.20;;;5.50;99.90;;;;;;5094861;28;20239;-81
2021/12/26 01:00:38;;;;;;;19.08;17.10;;;5.40;99.90;;;;;;5093121;28;20246;-81
2021/12/26 01:03:08;;;;;;;18.23;16.33;;;5.40;99.90;;;;;;5083378;28;20204;-81
2021/12/26 01:05:37;;;;;;;18.63;16.70;;;5.40;99.90;;;;;;5082722;28;20278;-80
2021/12/26 01:08:09;;;;;;;19.70;17.63;;;5.40;99.90;;;;;;5082718;28;20193;-81
2021/12/26 01:10:40;;;;;;;18.60;16.70;;;5.40;99.90;;;;;;5082509;28;20250;-81
2021/12/26 01:13:16;;;;;;;18.63;16.73;;;5.30;99.90;;;;;;5090702;28;20235;-81
2021/12/26 01:15:44;;;;;;;18.83;16.83;;;5.40;99.90;;;;;;5081539;28;20231;-81
2021/12/26 01:18:12;;;;;;;19.17;17.10;;;5.40;99.90;;;;;;5075177;28;20215;-81
2021/12/26 01:20:48;;;;;;;19.70;17.52;;;5.40;99.90;;;;;;5083414;28;20189;-81
2021/12/26 01:23:19;;;;;;;19.05;17.17;;;5.40;99.90;;;;;;5083644;28;20194;-81
2021/12/26 01:25:47;;;;;;;19.00;17.10;;;5.40;99.90;;;;;;5076997;28;20200;-81
2021/12/26 01:28:14;;;;;;;18.77;16.88;;;5.40;99.90;;;;;;5075876;28;20282;-81
2021/12/26 01:30:42;;;;;;;17.55;15.70;;;5.30;99.90;;;;;;5089462;28;20302;-81
2021/12/26 01:33:11;;;;;;;20.23;18.13;;;5.40;99.90;;;;;;5088796;28;20196;-81
2021/12/26 01:35:38;;;;;;;32.72;28.10;;;5.40;99.90;;;;;;5091759;28;20198;-81
2021/12/26 01:38:10;;;;;;;18.27;16.23;;;5.40;99.90;;;;;;5087688;28;20227;-81
2021/12/26 01:40:40;;;;;;;18.65;16.65;;;5.40;99.90;;;;;;5072148;28;20231;-81
2021/12/26 01:43:07;;;;;;;17.90;16.02;;;5.40;99.90;;;;;;5077269;28;20202;-81
2021/12/26 01:45:34;;;;;;;18.42;16.52;;;5.40;99.90;;;;;;5078480;28;20552;-81
2021/12/26 01:48:04;;;;;;;17.90;16.08;;;5.40;99.90;;;;;;5078686;28;20195;-82
2021/12/26 01:50:32;;;;;;;18.30;16.30;;;5.40;99.90;;;;;;5091815;28;20195;-81
2021/12/26 01:52:59;;;;;;;17.38;15.35;;;5.40;99.90;;;;;;5084712;28;20283;-81
2021/12/26 01:55:38;;;;;;;19.17;15.52;;;5.40;99.90;;;;;;5080792;28;20224;-81
2021/12/26 01:58:08;;;;;;;17.30;15.63;;;5.50;99.90;;;;;;5071840;28;20243;-81
2021/12/26 02:00:36;;;;;;;17.60;15.85;;;5.50;99.90;;;;;;5077375;28;20227;-81
2021/12/26 02:03:03;;;;;;;18.38;16.48;;;5.50;99.90;;;;;;5080495;28;20228;-81
2021/12/26 02:05:30;;;;;;;15.85;14.27;;;5.50;99.90;;;;;;5089448;28;20196;-80
2021/12/26 02:07:58;;;;;;;17.17;15.45;;;5.50;99.90;;;;;;5081474;28;20199;-80
2021/12/26 02:10:24;;;;;;;16.00;14.48;;;5.50;99.90;;;;;;5090972;28;20286;-81
2021/12/26 02:12:52;;;;;;;15.60;14.00;;;5.50;99.90;;;;;;5087952;28;20240;-81
2021/12/26 02:15:20;;;;;;;16.27;14.57;;;5.50;99.90;;;;;;5074027;28;20234;-81
2021/12/26 02:17:47;;;;;;;16.35;14.70;;;5.50;99.90;;;;;;5090666;28;20219;-81
2021/12/26 02:20:24;;;;;;;15.60;14.00;;;5.60;99.90;;;;;;5075860;28;20283;-81
2021/12/26 02:22:57;;;;;;;14.98;13.48;;;5.50;99.90;;;;;;5083671;28;20191;-81
2021/12/26 02:25:30;;;;;;;16.38;14.68;;;5.50;99.90;;;;;;5075140;28;20246;-81
2021/12/26 02:27:56;;;;;;;15.40;13.90;;;5.50;99.90;;;;;;5089978;28;20290;-81
2021/12/26 02:30:24;;;;;;;16.42;14.70;;;5.50;99.90;;;;;;5081641;28;20227;-81
2021/12/26 02:32:52;;;;;;;15.63;14.00;;;5.40;99.90;;;;;;5086876;28;20279;-80
2021/12/26 02:35:22;;;;;;;16.05;14.45;;;5.40;99.90;;;;;;5079817;28;20218;-81
2021/12/26 02:37:49;;;;;;;16.02;14.45;;;5.40;99.90;;;;;;5081492;28;20299;-81
2021/12/26 02:40:17;;;;;;;16.25;14.52;;;5.40;99.90;;;;;;5071311;28;20196;-81
2021/12/26 02:42:46;;;;;;;16.35;14.50;;;5.40;99.90;;;;;;5072134;28;20200;-80
2021/12/26 02:45:14;;;;;;;16.70;15.00;;;5.40;99.90;;;;;;5089073;28;20224;-81
2021/12/26 02:47:43;;;;;;;16.08;14.48;;;5.40;99.90;;;;;;5084392;28;20657;-81
2021/12/26 02:50:15;;;;;;;16.05;14.35;;;5.30;99.90;;;;;;5079393;28;20192;-81
2021/12/26 02:52:45;;;;;;;16.60;14.80;;;5.30;99.90;;;;;;5071552;28;20230;-80
2021/12/26 02:55:13;;;;;;;16.23;14.57;;;5.30;99.90;;;;;;5086090;28;20204;-81
2021/12/26 02:57:40;;;;;;;16.27;14.68;;;5.30;99.90;;;;;;5075053;28;20274;-81
2021/12/26 03:00:11;;;;;;;15.80;14.27;;;5.30;99.90;;;;;;5094301;28;20191;-81
2021/12/26 03:02:40;;;;;;;15.43;13.82;;;5.30;99.90;;;;;;5087401;28;20234;-80
2021/12/26 03:05:08;;;;;;;15.95;14.30;;;5.30;99.90;;;;;;5077774;28;20284;-81
2021/12/26 03:07:35;;;;;;;16.55;14.73;;;5.30;99.90;;;;;;5087107;28;20207;-80
2021/12/26 03:10:05;;;;;;;16.80;15.10;;;5.30;99.90;;;;;;5076074;28;20717;-81
2021/12/26 03:12:33;;;;;;;16.38;14.57;;;5.30;99.90;;;;;;5075821;28;20283;-81
2021/12/26 03:15:01;;;;;;;16.05;14.35;;;5.30;99.90;;;;;;5082090;28;20245;-81
2021/12/26 03:17:28;;;;;;;18.23;16.33;;;5.30;99.90;;;;;;5089938;28;20539;-81
2021/12/26 03:19:54;;;;;;;17.23;15.43;;;5.30;99.90;;;;;;5077781;28;20306;-81
2021/12/26 03:22:25;;;;;;;16.00;14.40;;;5.30;99.90;;;;;;5085527;28;20694;-81
2021/12/26 03:24:52;;;;;;;16.40;14.70;;;5.40;99.90;;;;;;5094064;28;20616;-81
2021/12/26 03:27:20;;;;;;;15.73;14.13;;;5.40;99.90;;;;;;5075965;28;20224;-81
2021/12/26 03:29:47;;;;;;;18.15;16.13;;;5.40;99.90;;;;;;5073425;28;20609;-81
2021/12/26 03:32:14;;;;;;;16.45;14.70;;;5.40;99.90;;;;;;5073510;28;20224;-81
2021/12/26 03:34:46;;;;;;;15.63;13.68;;;5.40;99.90;;;;;;5080932;28;20196;-81
2021/12/26 03:37:14;;;;;;;15.98;14.27;;;5.40;99.90;;;;;;5088200;28;20194;-81
2021/12/26 03:39:41;;;;;;;17.58;15.75;;;5.40;99.90;;;;;;5093712;28;20312;-81
2021/12/26 03:42:08;;;;;;;17.75;15.85;;;5.40;99.90;;;;;;5082233;28;20215;-80
2021/12/26 03:44:37;;;;;;;17.52;15.48;;;5.40;99.90;;;;;;5078119;28;20223;-81
2021/12/26 03:47:05;;;;;;;17.20;15.40;;;5.40;99.90;;;;;;5085091;28;20188;-81
2021/12/26 03:49:32;;;;;;;18.27;16.30;;;5.40;99.90;;;;;;5084705;28;20235;-81
2021/12/26 03:51:59;;;;;;;18.50;16.48;;;5.40;99.90;;;;;;5076144;28;20219;-80
2021/12/26 03:54:26;;;;;;;19.17;16.40;;;5.30;99.90;;;;;;5081839;28;20309;-80
2021/12/26 03:56:53;;;;;;;18.23;16.40;;;5.30;99.90;;;;;;5083104;28;20188;-81
2021/12/26 03:59:20;;;;;;;19.73;16.98;;;5.20;99.90;;;;;;5089087;28;20251;-80
2021/12/26 04:01:48;;;;;;;19.63;17.42;;;5.20;99.90;;;;;;5085776;28;20216;-80
2021/12/26 04:04:15;;;;;;;18.63;16.38;;;5.20;99.90;;;;;;5091571;28;20206;-81
2021/12/26 04:06:43;;;;;;;21.05;16.63;;;5.20;99.90;;;;;;5089974;28;20202;-81
2021/12/26 04:09:10;;;;;;;19.63;16.85;;;5.20;99.90;;;;;;5085786;28;20291;-81
2021/12/26 04:11:40;;;;;;;18.27;16.33;;;5.20;99.90;;;;;;5077572;28;20219;-81
2021/12/26 04:14:08;;;;;;;18.52;16.55;;;5.20;99.90;;;;;;5080854;28;20561;-80
2021/12/26 04:16:35;;;;;;;17.88;16.08;;;5.20;99.90;;;;;;5093318;28;20183;-80
2021/12/26 04:19:03;;;;;;;16.92;15.13;;;5.30;99.90;;;;;;5082726;28;20220;-81
2021/12/26 04:21:31;;;;;;;18.48;16.48;;;5.30;99.90;;;;;;5088853;28;20230;-80
2021/12/26 04:23:58;;;;;;;17.65;15.70;;;5.30;99.90;;;;;;5086302;28;20202;-80
2021/12/26 04:26:25;;;;;;;20.13;16.88;;;5.30;99.90;;;;;;5091619;28;20229;-81
2021/12/26 04:28:52;;;;;;;18.73;15.73;;;5.40;99.90;;;;;;5084841;28;20290;-80
2021/12/26 04:31:19;;;;;;;17.10;15.30;;;5.30;99.90;;;;;;5084376;28;20230;-80
2021/12/26 04:33:46;;;;;;;17.50;15.70;;;5.30;99.90;;;;;;5083952;28;20198;-80
2021/12/26 04:36:16;;;;;;;18.27;16.38;;;5.30;99.90;;;;;;5083246;28;20551;-81
2021/12/26 04:38:43;;;;;;;18.38;16.42;;;5.30;99.90;;;;;;5083844;28;20211;-80
2021/12/26 04:41:11;;;;;;;17.55;15.65;;;5.40;99.90;;;;;;5081511;28;20294;-81
2021/12/26 04:43:39;;;;;;;17.80;15.95;;;5.40;99.90;;;;;;5086132;28;20216;-80
2021/12/26 04:46:08;;;;;;;17.85;15.95;;;5.40;99.90;;;;;;5081236;28;20237;-80
2021/12/26 04:48:36;;;;;;;17.08;15.23;;;5.40;99.90;;;;;;5078989;28;20196;-81
2021/12/26 04:51:04;;;;;;;18.90;16.42;;;5.40;99.90;;;;;;5078764;28;20864;-80
2021/12/26 04:53:33;;;;;;;17.92;16.05;;;5.40;99.90;;;;;;5082107;28;20602;-81
2021/12/26 04:56:00;;;;;;;18.60;16.70;;;5.40;99.90;;;;;;5083977;28;20690;-80
2021/12/26 04:58:27;;;;;;;17.77;15.93;;;5.40;99.90;;;;;;5073666;28;20279;-80
2021/12/26 05:00:54;;;;;;;15.60;14.00;;;5.50;99.90;;;;;;5073854;28;20753;-81
2021/12/26 05:03:21;;;;;;;16.50;14.82;;;5.50;99.90;;;;;;5076217;28;20637;-81
2021/12/26 05:05:48;;;;;;;15.88;14.18;;;5.50;99.90;;;;;;5078501;28;20280;-81
2021/12/26 05:08:16;;;;;;;15.20;13.70;;;5.50;99.90;;;;;;5091014;28;20304;-80
2021/12/26 05:10:44;;;;;;;14.52;13.18;;;5.60;99.90;;;;;;5075755;28;20220;-80
2021/12/26 05:13:12;;;;;;;13.85;12.45;;;5.60;99.90;;;;;;5072810;28;20204;-81
2021/12/26 05:15:38;;;;;;;13.75;12.27;;;5.60;99.90;;;;;;5081652;28;20196;-81
2021/12/26 05:18:06;;;;;;;13.85;12.45;;;5.70;99.90;;;;;;5071944;28;20196;-80
2021/12/26 05:20:33;;;;;;;14.80;13.30;;;5.70;99.90;;;;;;5077437;28;20227;-81
2021/12/26 05:23:01;;;;;;;14.10;12.70;;;5.70;99.90;;;;;;5090511;28;20576;-80
2021/12/26 05:25:28;;;;;;;13.88;12.45;;;5.70;99.90;;;;;;5075624;28;20210;-80
2021/12/26 05:27:57;;;;;;;13.45;12.05;;;5.80;99.90;;;;;;5072870;28;20204;-81
2021/12/26 05:30:26;;;;;;;11.82;10.63;;;5.70;99.90;;;;;;5077604;28;20335;-80
2021/12/26 05:32:53;;;;;;;14.48;12.95;;;5.70;99.90;;;;;;5074238;28;20593;-81
2021/12/26 05:35:20;;;;;;;13.00;11.70;;;5.80;99.90;;;;;;5081805;28;20241;-81
2021/12/26 05:37:48;;;;;;;15.02;13.48;;;5.80;99.90;;;;;;5080476;28;20504;-80
2021/12/26 05:40:16;;;;;;;13.75;12.35;;;5.80;99.90;;;;;;5071764;28;20559;-80
2021/12/26 05:42:44;;;;;;;12.43;11.20;;;5.80;99.90;;;;;;5082226;28;20201;-80
2021/12/26 05:45:14;;;;;;;13.40;12.00;;;5.80;99.90;;;;;;5086939;28;20290;-80
2021/12/26 05:47:42;;;;;;;13.52;12.23;;;5.80;99.90;;;;;;5087144;28;20199;-80
2021/12/26 05:50:13;;;;;;;12.18;10.85;;;5.80;99.90;;;;;;5085656;28;20211;-80
2021/12/26 05:52:40;;;;;;;13.13;11.82;;;5.80;99.90;;;;;;5075709;28;20278;-81
2021/12/26 05:55:07;;;;;;;13.00;11.80;;;5.80;99.90;;;;;;5092838;28;20195;-80
2021/12/26 05:57:34;;;;;;;13.27;11.98;;;5.70;99.90;;;;;;5082426;28;20693;-81
2021/12/26 06:00:01;;;;;;;13.93;12.52;;;5.70;99.90;;;;;;5075794;28;20889;-81
2021/12/26 06:02:30;;;;;;;15.23;13.73;;;5.70;99.90;;;;;;5071554;28;20208;-80
2021/12/26 06:04:57;;;;;;;15.13;13.60;;;5.70;99.90;;;;;;5071553;28;20300;-80
2021/12/26 06:07:23;;;;;;;15.73;14.07;;;5.70;99.90;;;;;;5087302;28;20198;-80
2021/12/26 06:09:51;;;;;;;19.20;15.43;;;5.70;99.90;;;;;;5107457;28;20191;-81
2021/12/26 06:12:18;;;;;;;19.58;16.23;;;5.70;99.90;;;;;;5110274;28;20212;-81
2021/12/26 06:14:45;;;;;;;17.48;14.65;;;5.70;99.90;;;;;;5094681;28;20200;-81
2021/12/26 06:17:12;;;;;;;16.58;14.75;;;5.70;99.90;;;;;;5084353;28;20231;-80
2021/12/26 06:19:41;;;;;;;18.38;15.07;;;5.70;99.90;;;;;;5076747;28;20208;-80
2021/12/26 06:22:08;;;;;;;18.63;16.05;;;5.70;99.90;;;;;;5085805;28;20202;-81
2021/12/26 06:24:35;;;;;;;18.08;15.65;;;5.60;99.90;;;;;;5097020;28;20210;-80
2021/12/26 06:27:02;;;;;;;18.30;16.20;;;5.50;99.90;;;;;;5103856;28;20243;-81
2021/12/26 06:29:29;;;;;;;18.13;16.17;;;5.50;99.90;;;;;;5112714;28;20193;-79
2021/12/26 06:31:56;;;;;;;17.70;15.18;;;5.50;99.90;;;;;;5099721;28;20203;-80
2021/12/26 06:34:23;;;;;;;20.38;17.63;;;5.60;99.90;;;;;;5078388;28;20203;-80
2021/12/26 06:36:52;;;;;;;20.13;16.83;;;5.60;99.90;;;;;;5093777;28;20279;-81
2021/12/26 06:39:19;;;;;;;18.88;15.93;;;5.60;99.90;;;;;;5094638;28;20344;-80
2021/12/26 06:41:46;;;;;;;21.13;17.50;;;5.60;99.90;;;;;;5075784;28;20230;-81
2021/12/26 06:44:13;;;;;;;19.95;16.70;;;5.70;99.90;;;;;;5089432;28;20192;-81
2021/12/26 06:46:40;;;;;;;19.63;16.48;;;5.70;99.90;;;;;;5076703;28;20354;-80
2021/12/26 06:49:08;;;;;;;18.27;16.35;;;5.70;99.90;;;;;;5083213;28;20200;-80
2021/12/26 06:51:35;;;;;;;20.20;17.88;;;5.70;99.90;;;;;;5082352;28;20307;-81
2021/12/26 06:54:03;;;;;;;18.75;16.65;;;5.70;99.90;;;;;;5091908;28;20188;-80
2021/12/26 06:56:31;;;;;;;18.63;16.15;;;5.70;99.90;;;;;;5093342;28;20202;-80
2021/12/26 06:58:57;;;;;;;18.88;16.75;;;5.70;99.90;;;;;;5092238;28;20191;-80
2021/12/26 07:01:25;;;;;;;16.80;15.00;;;5.70;99.90;;;;;;5075049;28;20212;-80
2021/12/26 07:03:54;;;;;;;18.08;15.43;;;5.70;99.90;;;;;;5082657;28;20231;-82
2021/12/26 07:06:21;;;;;;;18.23;15.52;;;5.70;99.90;;;;;;5081112;28;20187;-85
2021/12/26 07:08:48;;;;;;;18.15;15.75;;;5.70;99.90;;;;;;5078158;28;20681;-80
2021/12/26 07:11:17;;;;;;;18.38;15.55;;;5.70;99.90;;;;;;5084499;28;20258;-82
2021/12/26 07:13:44;;;;;;;16.88;15.10;;;5.70;99.90;;;;;;5086394;28;20210;-86
2021/12/26 07:16:12;;;;;;;16.30;14.52;;;5.80;99.90;;;;;;5083586;28;20200;-91
2021/12/26 07:18:39;;;;;;;16.95;14.50;;;5.80;99.90;;;;;;5087396;28;20283;-89
2021/12/26 07:21:06;;;;;;;18.15;14.82;;;5.80;99.90;;;;;;5079596;28;20248;-88
2021/12/26 07:23:33;;;;;;;16.75;14.95;;;5.80;99.90;;;;;;5084334;28;20640;-81
2021/12/26 07:26:01;;;;;;;16.92;14.80;;;5.80;99.90;;;;;;5084057;28;20257;-90
2021/12/26 07:28:29;;;;;;;15.43;13.82;;;5.90;99.90;;;;;;5082365;28;20196;-85
2021/12/26 07:30:56;;;;;;;16.42;14.73;;;6.00;99.90;;;;;;5078004;28;20226;-79
2021/12/26 07:33:23;;;;;;;14.95;13.45;;;6.00;99.90;;;;;;5072200;28;20586;-82
2021/12/26 07:35:50;;;;;;;15.77;13.95;;;6.10;99.90;;;;;;5083811;28;20274;-85
2021/12/26 07:38:18;;;;;;;16.50;14.80;;;6.10;99.90;;;;;;5072288;28;20196;-84
2021/12/26 07:40:45;;;;;;;16.17;14.48;;;6.10;99.90;;;;;;5075664;28;20613;-84
2021/12/26 07:43:13;;;;;;;16.65;14.85;;;6.10;99.90;;;;;;5083303;28;20218;-82
2021/12/26 07:45:41;;;;;;;15.57;13.82;;;6.10;99.90;;;;;;5077680;28;20287;-82
2021/12/26 07:48:08;;;;;;;16.65;13.50;;;6.20;99.90;;;;;;5073541;28;20201;-85
2021/12/26 07:50:35;;;;;;;16.98;14.25;;;6.20;99.90;;;;;;5079352;28;20255;-82
2021/12/26 07:53:07;;;;;;;16.80;14.73;;;6.20;99.90;;;;;;5077739;28;20651;-84
2021/12/26 07:55:34;;;;;;;18.15;15.35;;;6.20;99.90;;;;;;5081900;28;20754;-83
2021/12/26 07:58:02;;;;;;;16.65;14.88;;;6.20;99.90;;;;;;5076526;28;20188;-83
2021/12/26 08:00:29;;;;;;;16.20;14.50;;;6.30;99.90;;;;;;5075667;28;20229;-83
2021/12/26 08:02:59;;;;;;;18.38;15.40;;;6.30;99.90;;;;;;5076270;28;20255;-84
2021/12/26 08:05:26;;;;;;;17.23;15.30;;;6.30;99.90;;;;;;5077112;28;20291;-83
2021/12/26 08:07:54;;;;;;;16.63;14.93;;;6.30;99.90;;;;;;5074801;28;20232;-84
2021/12/26 08:10:24;;;;;;;16.98;15.00;;;6.30;99.90;;;;;;5072627;28;20649;-84
2021/12/26 08:12:51;;;;;;;16.55;14.02;;;6.30;99.90;;;;;;5072761;28;20228;-84
2021/12/26 08:15:18;;;;;;;16.05;14.30;;;6.40;99.90;;;;;;5075346;28;20853;-84
2021/12/26 08:17:46;;;;;;;15.70;13.63;;;6.40;99.90;;;;;;5085659;28;20274;-82
2021/12/26 08:20:14;;;;;;;15.55;13.63;;;6.40;99.90;;;;;;5079651;28;20255;-84
2021/12/26 08:22:42;;;;;;;15.35;13.75;;;6.50;99.90;;;;;;5079186;28;20195;-82
2021/12/26 08:25:10;;;;;;;16.48;14.25;;;6.50;99.90;;;;;;5072971;28;20648;-83
2021/12/26 08:27:37;;;;;;;16.05;14.35;;;6.60;99.90;;;;;;5069682;28;20200;-83
2021/12/26 08:30:05;;;;;;;16.63;14.80;;;6.60;99.90;;;;;;5074441;28;20224;-81
2021/12/26 08:32:36;;;;;;;17.83;15.98;;;6.50;99.90;;;;;;5076284;28;20194;-82
2021/12/26 08:35:06;;;;;;;17.90;16.00;;;6.50;99.90;;;;;;5080162;28;20215;-82
2021/12/26 08:37:35;;;;;;;17.00;15.05;;;6.40;99.90;;;;;;5081555;28;20663;-80
2021/12/26 08:40:02;;;;;;;19.55;16.98;;;6.30;99.90;;;;;;5076997;28;20228;-80
2021/12/26 08:42:29;;;;;;;16.45;14.55;;;6.30;99.90;;;;;;5069924;28;20204;-80
2021/12/26 08:44:58;;;;;;;16.40;14.70;;;6.30;99.90;;;;;;5081193;28;20192;-80
2021/12/26 08:47:25;;;;;;;18.23;15.18;;;6.30;99.90;;;;;;5086063;28;20204;-80
2021/12/26 08:49:52;;;;;;;17.50;15.23;;;6.30;99.90;;;;;;5081264;28;20223;-81
2021/12/26 08:52:19;;;;;;;16.33;14.63;;;6.30;99.90;;;;;;5069522;28;20275;-80
2021/12/26 08:54:47;;;;;;;16.92;14.32;;;6.30;99.90;;;;;;5081707;28;20261;-80
2021/12/26 08:57:15;;;;;;;16.17;14.27;;;6.40;99.90;;;;;;5076465;28;20558;-80
2021/12/26 08:59:43;;;;;;;17.70;15.73;;;6.40;99.90;;;;;;5074634;28;20629;-81
2021/12/26 09:02:10;;;;;;;16.10;14.32;;;6.30;99.90;;;;;;5077650;28;20623;-81
2021/12/26 09:04:38;;;;;;;15.30;13.57;;;6.30;99.90;;;;;;5084941;28;20419;-81
2021/12/26 09:07:07;;;;;;;15.35;13.60;;;6.30;99.90;;;;;;5076067;28;20203;-81
2021/12/26 09:09:35;;;;;;;17.00;14.52;;;6.20;99.90;;;;;;5070634;28;20219;-80
2021/12/26 09:12:04;;;;;;;15.65;14.00;;;6.20;99.90;;;;;;5073491;28;20188;-80
2021/12/26 09:14:32;;;;;;;15.60;13.73;;;6.20;99.90;;;;;;5072082;28;20293;-79
2021/12/26 09:17:00;;;;;;;16.38;14.00;;;6.20;99.90;;;;;;5081182;28;20668;-79
2021/12/26 09:19:28;;;;;;;15.60;13.80;;;6.10;99.90;;;;;;5077979;28;20222;-79
2021/12/26 09:21:55;;;;;;;15.60;14.00;;;6.00;99.90;;;;;;5077225;28;20220;-80
2021/12/26 09:24:23;;;;;;;15.98;13.95;;;6.10;99.90;;;;;;5068436;28;20261;-82
2021/12/26 09:26:51;;;;;;;16.13;14.45;;;6.00;99.90;;;;;;5071684;28;20208;-80
2021/12/26 09:29:20;;;;;;;19.65;15.55;;;5.90;99.90;;;;;;5077708;28;20236;-81
2021/12/26 09:31:48;;;;;;;16.77;14.80;;;5.90;99.90;;;;;;5072949;28;20262;-80
2021/12/26 09:34:16;;;;;;;16.08;14.20;;;6.00;99.90;;;;;;5074029;28;20279;-80
2021/12/26 09:36:43;;;;;;;16.92;14.88;;;6.00;99.90;;;;;;5078692;28;20249;-79
2021/12/26 09:39:11;;;;;;;18.52;15.32;;;6.10;99.90;;;;;;5069695;28;20756;-80
2021/12/26 09:41:38;;;;;;;15.50;13.90;;;6.10;99.90;;;;;;5071049;28;20697;-79
2021/12/26 09:44:06;;;;;;;16.15;14.35;;;6.10;99.90;;;;;;5072818;28;20200;-83
2021/12/26 09:46:36;;;;;;;16.13;14.30;;;6.20;99.90;;;;;;5072851;28;20192;-81
2021/12/26 09:49:04;;;;;;;15.95;14.25;;;6.20;99.90;;;;;;5081707;28;20242;-82
2021/12/26 09:51:32;;;;;;;15.00;13.13;;;6.20;99.90;;;;;;5077784;28;20234;-81
2021/12/26 09:53:59;;;;;;;15.25;13.65;;;6.30;99.90;;;;;;5075179;28;20669;-81
2021/12/26 09:56:26;;;;;;;15.55;13.95;;;6.40;99.90;;;;;;5071641;28;20651;-81
2021/12/26 09:58:56;;;;;;;16.63;14.82;;;6.40;99.90;;;;;;5072999;28;20671;-82
2021/12/26 10:01:30;;;;;;;15.45;13.85;;;6.50;99.90;;;;;;5083378;28;20277;-82
2021/12/26 10:04:01;;;;;;;15.27;13.68;;;6.60;99.90;;;;;;5072322;28;20245;-82
2021/12/26 10:06:32;;;;;;;15.32;13.60;;;6.70;99.90;;;;;;5075279;28;20200;-82
2021/12/26 10:09:02;;;;;;;15.68;14.07;;;6.70;99.90;;;;;;5071326;28;20248;-81
2021/12/26 10:11:31;;;;;;;16.55;14.30;;;6.70;99.90;;;;;;5070185;28;20616;-81
2021/12/26 10:14:00;;;;;;;15.50;13.82;;;6.60;99.90;;;;;;5077552;28;20218;-82
2021/12/26 10:16:30;;;;;;;16.50;14.27;;;6.60;99.90;;;;;;5080416;28;20204;-82
2021/12/26 10:19:00;;;;;;;16.20;14.38;;;6.60;99.90;;;;;;5089947;28;20227;-82
2021/12/26 10:21:45;;;;;;;16.10;14.40;;;6.70;99.90;;;;;;5074692;28;20756;-82
2021/12/26 10:24:16;;;;;;;16.60;14.90;;;6.80;99.90;;;;;;5075015;28;20192;-82
2021/12/26 10:26:45;;;;;;;16.75;14.95;;;6.90;99.90;;;;;;5071537;28;20200;-81
2021/12/26 10:29:23;;;;;;;15.00;13.40;;;7.00;99.90;;;;;;5072913;28;20264;-82
2021/12/26 10:32:00;;;;;;;15.38;13.80;;;7.20;99.90;;;;;;5071435;28;20188;-81
2021/12/26 10:34:33;;;;;;;15.73;13.85;;;7.30;99.90;;;;;;5073753;28;20271;-81
2021/12/26 10:37:02;;;;;;;16.55;13.50;;;7.40;99.90;;;;;;5076529;28;20282;-81
2021/12/26 10:39:31;;;;;;;14.35;12.85;;;7.40;99.90;;;;;;5086095;28;20905;-82
2021/12/26 10:42:01;;;;;;;14.85;13.45;;;7.40;99.90;;;;;;5072897;28;20315;-81
2021/12/26 10:44:31;;;;;;;14.55;13.05;;;7.30;99.90;;;;;;5079853;28;20286;-81
2021/12/26 10:47:01;;;;;;;15.88;13.30;;;7.30;99.90;;;;;;5082143;28;20196;-81
2021/12/26 10:49:48;;;;;;;14.52;13.02;;;7.20;99.90;;;;;;5071356;28;20643;-81
2021/12/26 10:52:25;;;;;;;17.20;14.80;;;7.20;99.90;;;;;;5068546;28;20204;-81
2021/12/26 10:54:58;;;;;;;15.50;13.90;;;7.20;99.90;;;;;;5080592;28;20192;-81
2021/12/26 10:57:28;;;;;;;16.60;14.90;;;7.20;99.90;;;;;;5071003;28;21716;-81
2021/12/26 11:00:15;;;;;;;17.05;15.13;;;7.20;99.90;;;;;;5070268;28;20204;-81
2021/12/26 11:02:45;;;;;;;15.80;14.15;;;7.30;99.90;;;;;;5068938;28;20200;-78
2021/12/26 11:05:15;;;;;;;16.50;14.80;;;7.40;99.90;;;;;;5068529;28;20748;-78
2021/12/26 11:07:48;;;;;;;15.00;13.45;;;7.30;99.90;;;;;;5080023;28;20278;-79
2021/12/26 11:10:19;;;;;;;16.05;14.35;;;7.30;99.90;;;;;;5074286;28;20216;-79
2021/12/26 11:12:49;;;;;;;16.83;15.07;;;7.40;99.90;;;;;;5075940;28;20223;-78
2021/12/26 11:15:17;;;;;;;15.88;14.30;;;7.30;99.90;;;;;;5076786;28;20196;-79
2021/12/26 11:17:48;;;;;;;15.23;13.73;;;7.30;99.90;;;;;;5082588;28;20250;-79
2021/12/26 11:20:39;;;;;;;14.77;13.38;;;7.30;99.90;;;;;;5074108;28;20557;-79
2021/12/26 11:23:10;;;;;;;15.82;14.20;;;7.40;99.90;;;;;;5068273;28;20232;-79
2021/12/26 11:25:39;;;;;;;14.82;13.25;;;7.40;99.90;;;;;;5077838;28;20277;-79
2021/12/26 11:28:06;;;;;;;13.98;12.52;;;7.50;99.90;;;;;;5079617;28;20257;-79
2021/12/26 11:30:34;;;;;;;14.50;13.10;;;7.70;99.90;;;;;;5080106;28;20232;-79
2021/12/26 11:33:03;;;;;;;14.77;13.30;;;7.90;99.90;;;;;;5073326;28;20284;-79
2021/12/26 11:35:30;;;;;;;13.55;12.20;;;8.10;99.90;;;;;;5087832;28;20631;-79
2021/12/26 11:38:01;;;;;;;12.70;11.40;;;8.30;99.90;;;;;;5087208;28;20202;-79
2021/12/26 11:40:29;;;;;;;12.68;11.38;;;8.60;99.90;;;;;;5075074;28;20583;-79
2021/12/26 11:43:26;;;;;;;11.15;10.07;;;9.20;99.90;;;;;;5078306;28;20314;-80
2021/12/26 11:46:08;;;;;;;11.27;10.13;;;9.80;99.90;;;;;;5072454;28;20246;-80
2021/12/26 11:49:15;;;;;;;10.82;9.82;;;10.10;99.90;;;;;;5079652;28;20229;-80
2021/12/26 11:51:58;;;;;;;10.50;9.50;;;10.30;99.90;;;;;;5072790;28;20610;-79
2021/12/26 11:54:48;;;;;;;10.32;9.43;;;10.60;99.90;;;;;;5081075;28;20637;-79
2021/12/26 11:57:36;;;;;;;10.48;9.57;;;10.70;99.90;;;;;;5077662;28;20193;-79
2021/12/26 12:00:10;;;;;;;9.88;8.98;;;10.80;99.90;;;;;;5078207;28;20748;-79
2021/12/26 12:02:42;;;;;;;10.02;9.13;;;10.80;99.90;;;;;;5074277;28;20251;-78
2021/12/26 12:05:13;;;;;;;10.82;9.73;;;10.60;99.90;;;;;;5075219;28;20250;-78
2021/12/26 12:07:50;;;;;;;11.27;10.25;;;10.40;99.90;;;;;;5082195;28;20206;-78
2021/12/26 12:10:56;;;;;;;11.57;10.52;;;10.30;99.90;;;;;;5068317;28;20238;-81
2021/12/26 12:13:44;;;;;;;10.57;9.57;;;10.10;99.90;;;;;;5016965;28;20228;-79
2021/12/26 12:16:13;;;;;;;10.20;9.30;;;10.00;99.90;;;;;;5071925;28;20611;-79
2021/12/26 12:18:54;;;;;;;9.70;8.77;;;10.00;99.90;;;;;;5081703;28;20238;-80
2021/12/26 12:21:22;;;;;;;9.45;8.65;;;10.00;99.90;;;;;;5077633;28;20227;-79
2021/12/26 12:23:59;;;;;;;8.73;7.93;;;10.10;99.90;;;;;;5078641;28;20203;-80
2021/12/26 12:26:48;;;;;;;9.25;8.55;;;10.20;99.90;;;;;;5082583;28;20201;-79
2021/12/26 12:29:47;;;;;;;8.90;8.10;;;10.20;99.90;;;;;;5079355;28;20216;-80
2021/12/26 12:32:17;;;;;;;9.55;8.75;;;10.20;99.90;;;;;;5075197;28;20191;-80
2021/12/26 12:34:51;;;;;;;9.40;8.50;;;10.00;99.90;;;;;;5073549;28;20206;-80
2021/12/26 12:37:36;;;;;;;8.80;8.00;;;9.80;99.90;;;;;;5078528;28;20196;-80
2021/12/26 12:40:18;;;;;;;9.10;8.32;;;9.70;99.90;;;;;;5074446;28;20244;-79
2021/12/26 12:43:05;;;;;;;9.02;8.23;;;9.60;99.90;;;;;;5080484;28;20213;-80
2021/12/26 12:45:52;;;;;;;8.80;8.05;;;9.50;99.90;;;;;;5082451;28;20248;-79
2021/12/26 12:48:23;;;;;;;9.05;8.35;;;9.40;99.90;;;;;;5100347;28;20213;-80
2021/12/26 12:50:51;;;;;;;8.75;7.95;;;9.30;99.90;;;;;;5106346;28;20202;-79